createdAt,value
2018-07-16T00:04:34.323Z,5.73
2018-07-16T00:14:35.638Z,6.20
2018-07-16T00:24:36.845Z,7.10
2018-07-16T00:34:38.101Z,6.47
2018-07-16T00:44:39.355Z,6.53
2018-07-16T00:54:40.613Z,6.70
2018-07-16T01:04:42.022Z,6.13
2018-07-16T01:14:43.254Z,7.53
2018-07-16T01:24:45.701Z,7.33
2018-07-16T01:34:46.992Z,9.10
2018-07-16T01:44:48.229Z,8.03
2018-07-16T01:54:49.510Z,8.30
2018-07-16T02:04:50.762Z,9.27
2018-07-16T02:14:52.766Z,8.70
2018-07-16T02:35:01.838Z,7.80
2018-07-16T02:45:03.069Z,8.90
2018-07-16T02:55:04.331Z,9.03
2018-07-16T03:05:05.557Z,10.57
2018-07-16T03:15:06.832Z,9.57
2018-07-16T03:25:08.583Z,8.77
2018-07-16T03:35:09.841Z,9.73
2018-07-16T03:45:11.110Z,8.43
2018-07-16T03:55:12.540Z,9.33
2018-07-16T04:05:13.796Z,8.63
2018-07-16T04:15:15.052Z,8.63
2018-07-16T04:25:16.498Z,8.60
2018-07-16T04:35:17.912Z,7.17
2018-07-16T04:45:19.190Z,9.10
2018-07-16T04:55:20.455Z,8.17
2018-07-16T05:05:22.750Z,7.90
2018-07-16T05:15:24.182Z,8.63
2018-07-16T05:25:25.452Z,9.10
2018-07-16T05:35:26.718Z,9.73
2018-07-16T05:45:27.993Z,9.40
2018-07-16T05:55:29.258Z,9.23
2018-07-16T06:05:30.540Z,8.70
2018-07-16T06:15:31.802Z,9.33
2018-07-16T06:25:33.051Z,8.73
2018-07-16T06:35:35.106Z,9.33
2018-07-16T06:45:36.374Z,9.40
2018-07-16T06:55:38.411Z,8.63
2018-07-16T07:05:39.707Z,9.60
2018-07-16T07:15:41.266Z,8.37
2018-07-16T07:25:43.297Z,7.97
2018-07-16T07:35:44.792Z,7.55
2018-07-16T07:45:45.988Z,7.65
2018-07-16T07:55:48.163Z,7.40
2018-07-16T08:05:49.294Z,6.47
2018-07-16T08:15:51.343Z,6.90
2018-07-16T08:25:52.643Z,6.18
2018-07-16T08:35:53.926Z,5.75
2018-07-16T08:45:55.215Z,5.68
2018-07-16T08:55:56.474Z,4.65
2018-07-16T09:05:57.731Z,4.72
2018-07-16T09:15:58.999Z,5.32
2018-07-16T09:26:00.274Z,4.47
2018-07-16T09:36:01.703Z,4.40
2018-07-16T09:46:02.980Z,4.85
2018-07-16T09:56:05.178Z,4.95
2018-07-16T10:06:06.594Z,4.62
2018-07-16T10:16:08.639Z,4.85
2018-07-16T10:26:09.927Z,4.78
2018-07-16T10:36:11.210Z,4.87
2018-07-16T10:46:12.476Z,4.60
2018-07-16T10:56:13.738Z,4.78
2018-07-16T11:06:15.016Z,4.55
2018-07-16T11:16:16.269Z,4.85
2018-07-16T11:26:17.551Z,5.55
2018-07-16T11:36:18.806Z,5.53
2018-07-16T11:46:20.084Z,5.40
2018-07-16T11:56:21.366Z,5.90
2018-07-16T12:06:22.674Z,5.32
2018-07-16T12:16:23.955Z,5.47
2018-07-16T12:26:25.312Z,5.65
2018-07-16T12:36:26.560Z,5.53
2018-07-16T12:46:27.825Z,3.65
2018-07-16T12:56:29.862Z,5.65
2018-07-16T13:06:31.314Z,4.97
2018-07-16T13:16:32.587Z,4.75
2018-07-16T13:26:34.029Z,6.10
2018-07-16T13:36:36.075Z,5.15
2018-07-16T13:46:37.545Z,5.20
2018-07-16T13:56:39.605Z,5.10
2018-07-16T14:06:40.882Z,4.68
2018-07-16T14:16:42.302Z,4.93
2018-07-16T14:26:43.578Z,4.97
2018-07-16T14:36:44.862Z,6.60
2018-07-16T14:46:47.055Z,6.40
2018-07-16T14:56:48.448Z,5.80
2018-07-16T15:06:49.722Z,6.10
2018-07-16T15:16:51.790Z,6.53
2018-07-16T15:26:53.030Z,6.63
2018-07-16T15:36:54.278Z,6.67
2018-07-16T15:46:55.533Z,6.47
2018-07-16T15:56:56.783Z,5.97
2018-07-16T16:06:58.034Z,6.63
2018-07-16T16:16:59.418Z,6.10
2018-07-16T16:27:00.671Z,7.03
2018-07-16T16:37:02.142Z,6.77
2018-07-16T16:47:04.155Z,6.27
2018-07-16T16:57:06.151Z,6.33
2018-07-16T17:07:07.396Z,7.00
2018-07-16T17:17:08.769Z,6.30
2018-07-16T17:27:10.030Z,6.67
2018-07-16T17:37:11.374Z,8.77
2018-07-16T17:47:12.645Z,6.43
2018-07-16T17:57:14.659Z,6.47
2018-07-16T18:07:15.910Z,6.60
2018-07-16T18:17:18.167Z,6.50
2018-07-16T18:27:19.409Z,6.47
2018-07-16T18:37:20.662Z,6.43
2018-07-16T18:47:22.663Z,6.57
2018-07-16T18:57:23.894Z,6.97
2018-07-16T19:07:25.134Z,5.87
2018-07-16T19:17:26.384Z,5.93
2018-07-16T19:27:27.659Z,6.37
2018-07-16T19:37:29.739Z,6.30
2018-07-16T19:47:30.999Z,6.97
2018-07-16T19:57:32.253Z,7.17
2018-07-16T20:07:33.646Z,7.97
2018-07-16T20:17:34.896Z,8.63
2018-07-16T20:27:39.662Z,8.93
2018-07-16T20:37:40.906Z,9.00
2018-07-16T20:47:42.206Z,8.03
2018-07-16T20:57:43.459Z,8.40
2018-07-16T21:07:44.694Z,7.87
2018-07-16T21:17:46.113Z,8.27
2018-07-16T21:27:48.119Z,8.77
2018-07-16T21:37:49.354Z,7.70
